Fall Creek, OR (97438)

10:27 AM PDT on September 21, 2014 (GMT -0700)
Lost Creek | Change Station
CLOSE
Current Station
Personal Weather Station
Location: Dexter, OR
Elevation: 700 ft
Nearby Weather Stations

Elev 700 ft 43.92 °N, 122.82 °W | Updated 2 minutes ago

Clear
Clear
70.3 °F
Feels Like 75 °F
N
0.0
Wind Variable Wind from ESE
Gusts 0.0 mph

Today
High -- | Low -- °F
--% Chance of Precip.
Yesterday
High -- | Low -- °F
Precip. -- in
6:56 AM 7:09 PM
Waning Crescent, 6% visible
Pressure 29.94 in
Visibility 10.0 miles
Clouds Few 15000 ft
Heat Index 75 °F
Dew Point 58 °F
Humidity 65%
Rainfall 0.00 in
Snow Depth 1 in , 0 in , 0 in
UV 3.4 out of 12
Pollen 2.00 out of 12
Ozone Good
PM2.5 Moderate
Flu Activity Not available.
METAR KEUG 211654Z 22006KT 10SM FEW150 19/13 A2994 RMK AO2 SLP138 T01940128

More Conditions Fewer Conditions

Pressure 29.94 in
Visibility 10.0 miles
Clouds Few 15000 ft
Heat Index 75 °F
Dew Point 58 °F
Humidity 65%
Rainfall 0.00 in
Snow Depth 1 in , 0 in , 0 in
UV 3.4 out of 12
Pollen 2.00 out of 12
Ozone Good
PM2.5 Moderate
Flu Activity Not available.
METAR KEUG 211654Z 22006KT 10SM FEW150 19/13 A2994 RMK AO2 SLP138 T01940128

More Conditions Fewer Conditions

10-Day Weather Forecast

Almanac

Astronomy

Sep. 21, 2014 Rise Set
Actual Time 6:56 AM PDT 7:09 PM PDT
Civil Twilight 6:28 AM PDT 7:38 PM PDT
Nautical Twilight 5:54 AM PDT 8:12 PM PDT
Astronomical Twilight 5:19 AM PDT 8:46 PM PDT
Moon 4:31 AM PDT 5:51 PM PDT
Length of Visible Light 13h 10m
Length of Day
12h 12m
Tomorrow will be 3m 0s shorter.
Waning Crescent, 6% of the Moon is Illuminated
Today
Waning Crescent
Sep 24
New
Oct 1
First Quarter
Oct 8
Full
Oct 15
Last Quarter

Today's Extremes

State Highs State Lows

Community

WunderPhotos

Upload Photos

1,755,197 photos uploaded!

WunderBlogs® & News

Nearby

Air Quality

  Air Quality AQ Index Pollutant
Yesterday Moderate
PM2.5
Yesterday Good
OZONE
Current Moderate
PM2.5
Current Good
OZONE
Sunday Moderate
PM2.5

Snow Depth

Station Depth Elevation
Irish Taylor 1 in 5500 ft
Fish Creek 0 in 7900 ft
Annie Springs 0 in 6020 ft
Greenpoint 0 in 3200 ft
Blue Mountain Spring 0 in 5900 ft

Earthquake Activity

City Distance Mag. Time & Date
No recent earthquake activity has been reported nearby.
Minimum magnitude displayed is 2.5.

Coastal Water Temperatures

Place Temperature
No Stations Reporting

Nearby Weather Stations